createdAt,value
2023-05-17T00:01:56.608Z,7.90
2023-05-17T00:04:23.738Z,8.00
2023-05-17T00:06:50.891Z,7.90
2023-05-17T00:09:18.022Z,8.00
2023-05-17T00:11:45.281Z,8.00
2023-05-17T00:14:12.818Z,7.90
2023-05-17T00:16:39.901Z,7.90
2023-05-17T00:19:07.063Z,7.90
2023-05-17T00:21:35.416Z,7.80
2023-05-17T00:24:02.586Z,7.80
2023-05-17T00:26:29.715Z,7.70
2023-05-17T00:28:56.732Z,7.60
2023-05-17T00:31:23.745Z,7.60
2023-05-17T00:33:50.850Z,7.50
2023-05-17T00:36:17.857Z,7.60
2023-05-17T00:38:44.997Z,7.60
2023-05-17T00:41:13.043Z,7.60
2023-05-17T00:43:40.418Z,7.60
2023-05-17T00:46:07.565Z,7.60
2023-05-17T00:48:34.911Z,7.60
2023-05-17T00:51:02.238Z,7.60
2023-05-17T00:53:30.377Z,7.50
2023-05-17T00:55:57.555Z,7.50
2023-05-17T00:58:25.158Z,7.50
2023-05-17T01:00:52.925Z,7.50
2023-05-17T01:03:22.575Z,7.50
2023-05-17T01:05:51.338Z,7.40
2023-05-17T01:08:18.392Z,7.40
2023-05-17T01:11:19.408Z,7.50
2023-05-17T01:14:03.007Z,7.30
2023-05-17T01:17:20.561Z,7.40
2023-05-17T01:20:09.305Z,7.30
2023-05-17T01:22:57.380Z,7.30
2023-05-17T01:25:59.025Z,7.40
2023-05-17T01:28:27.608Z,7.30
2023-05-17T01:30:55.918Z,7.20
2023-05-17T01:33:23.536Z,7.10
2023-05-17T01:35:50.594Z,7.10
2023-05-17T01:38:17.739Z,7.20
2023-05-17T01:41:31.076Z,7.10
2023-05-17T01:44:13.663Z,7.10
2023-05-17T01:46:43.845Z,7.10
2023-05-17T01:49:29.945Z,7.00
2023-05-17T01:52:12.236Z,7.00
2023-05-17T01:54:56.225Z,7.00
2023-05-17T01:57:32.570Z,7.00
2023-05-17T02:00:02.319Z,7.00
2023-05-17T02:02:32.508Z,6.90
2023-05-17T02:04:59.692Z,6.90
2023-05-17T02:07:26.872Z,6.80
2023-05-17T02:09:53.911Z,6.70
2023-05-17T02:12:21.068Z,6.60
2023-05-17T02:14:48.293Z,6.70
2023-05-17T02:17:15.473Z,6.70
2023-05-17T02:19:42.578Z,6.70
2023-05-17T02:22:09.620Z,6.50
2023-05-17T02:24:36.813Z,6.40
2023-05-17T02:27:04.532Z,6.40
2023-05-17T02:29:31.836Z,6.30
2023-05-17T02:31:58.959Z,6.50
2023-05-17T02:34:26.658Z,6.40
2023-05-17T02:36:53.895Z,6.60
2023-05-17T02:39:20.979Z,6.50
2023-05-17T02:41:48.119Z,6.40
2023-05-17T02:44:15.188Z,6.50
2023-05-17T02:46:42.296Z,6.40
2023-05-17T02:49:09.378Z,6.40
2023-05-17T02:51:36.379Z,6.60
2023-05-17T02:54:03.430Z,6.40
2023-05-17T02:56:31.052Z,6.40
2023-05-17T02:58:59.757Z,6.50
2023-05-17T03:01:27.685Z,6.40
2023-05-17T03:03:54.924Z,6.30
2023-05-17T03:06:22.166Z,6.30
2023-05-17T03:08:49.269Z,6.20
2023-05-17T03:11:16.347Z,6.30
2023-05-17T03:13:43.560Z,6.40
2023-05-17T03:16:10.717Z,6.40
2023-05-17T03:18:37.985Z,6.50
2023-05-17T03:21:05.060Z,6.50
2023-05-17T03:23:32.119Z,6.60
2023-05-17T03:33:22.117Z,6.90
2023-05-17T03:35:49.369Z,7.10
2023-05-17T03:38:16.962Z,7.00
2023-05-17T03:40:44.158Z,7.00
2023-05-17T03:43:14.557Z,7.10
2023-05-17T03:45:46.380Z,7.10
2023-05-17T03:48:13.785Z,7.30
2023-05-17T03:50:43.813Z,7.20
2023-05-17T03:53:11.075Z,7.30
2023-05-17T03:55:38.240Z,7.30
2023-05-17T03:58:05.316Z,7.30
2023-05-17T04:00:32.584Z,7.40
2023-05-17T04:02:59.819Z,7.60
2023-05-17T04:05:27.241Z,7.50
2023-05-17T04:07:54.835Z,7.50
2023-05-17T04:10:22.464Z,7.60
2023-05-17T04:12:50.066Z,7.60
2023-05-17T04:15:17.155Z,7.70
2023-05-17T04:17:44.316Z,7.80
2023-05-17T04:20:12.477Z,7.90
2023-05-17T04:22:39.803Z,7.90
2023-05-17T04:25:08.362Z,8.00
2023-05-17T04:27:35.957Z,8.10
2023-05-17T04:30:04.389Z,8.10
2023-05-17T04:32:34.301Z,8.20
2023-05-17T04:35:02.007Z,8.30
2023-05-17T04:37:29.085Z,8.30
2023-05-17T04:39:56.404Z,8.40
2023-05-17T04:42:23.640Z,8.50
2023-05-17T04:44:50.769Z,8.60
2023-05-17T04:47:18.921Z,8.60
2023-05-17T04:49:46.081Z,8.60
2023-05-17T04:52:13.203Z,8.70
2023-05-17T04:54:40.639Z,8.90
2023-05-17T04:57:07.885Z,9.00
2023-05-17T04:59:34.976Z,9.00
2023-05-17T05:02:02.022Z,9.10
2023-05-17T05:04:29.107Z,9.20
2023-05-17T05:06:56.182Z,9.30
2023-05-17T05:09:23.263Z,9.10
2023-05-17T05:11:50.302Z,9.30
2023-05-17T05:14:17.378Z,9.50
2023-05-17T05:16:44.485Z,9.60
2023-05-17T05:19:11.797Z,9.40
2023-05-17T05:21:38.985Z,9.60
2023-05-17T05:24:06.392Z,9.60
2023-05-17T05:26:33.554Z,9.70
2023-05-17T05:29:00.614Z,9.80
2023-05-17T05:31:28.263Z,9.90
2023-05-17T05:33:55.472Z,10.00
2023-05-17T05:36:22.549Z,10.10
2023-05-17T05:38:50.073Z,10.20
2023-05-17T05:41:17.174Z,10.20
2023-05-17T05:43:44.195Z,10.20
2023-05-17T05:46:11.295Z,10.30
2023-05-17T05:48:41.861Z,10.50
2023-05-17T05:51:09.250Z,10.70
2023-05-17T05:53:36.712Z,10.70
2023-05-17T05:56:04.572Z,10.90
2023-05-17T05:58:32.408Z,10.90
2023-05-17T06:01:00.355Z,10.80
2023-05-17T06:03:27.572Z,10.70
2023-05-17T06:05:55.592Z,10.90
2023-05-17T06:08:22.783Z,11.00
2023-05-17T06:10:49.934Z,11.00
2023-05-17T06:13:17.020Z,11.00
2023-05-17T06:15:44.126Z,11.30
2023-05-17T06:18:11.397Z,11.20
2023-05-17T06:20:38.475Z,11.10
2023-05-17T06:23:06.706Z,11.30
2023-05-17T06:25:33.776Z,11.40
2023-05-17T06:28:03.010Z,11.60
2023-05-17T06:30:31.293Z,11.60
2023-05-17T06:32:58.853Z,11.80
2023-05-17T06:35:26.394Z,11.90
2023-05-17T06:37:53.612Z,11.80
2023-05-17T06:40:21.130Z,11.70
2023-05-17T06:42:48.326Z,11.70
2023-05-17T06:45:15.497Z,11.70
2023-05-17T06:47:42.856Z,11.80
2023-05-17T06:50:10.572Z,11.90
2023-05-17T06:52:37.736Z,11.80
2023-05-17T06:55:05.806Z,11.70
2023-05-17T06:57:32.940Z,11.90
2023-05-17T06:59:59.952Z,11.90
2023-05-17T07:02:26.949Z,11.90
2023-05-17T07:04:54.099Z,11.60
2023-05-17T07:07:22.174Z,11.60
2023-05-17T07:09:49.309Z,11.60
2023-05-17T07:12:16.446Z,11.50
2023-05-17T07:14:43.595Z,11.70
2023-05-17T07:17:11.876Z,11.70
2023-05-17T07:19:39.052Z,11.60
2023-05-17T07:22:06.501Z,11.50
2023-05-17T07:24:33.616Z,11.60
2023-05-17T07:27:00.670Z,11.70
2023-05-17T07:29:27.871Z,11.80
2023-05-17T07:31:54.907Z,11.80
2023-05-17T07:34:22.003Z,11.70
2023-05-17T07:36:49.133Z,11.80
2023-05-17T07:39:16.325Z,12.30
2023-05-17T07:41:43.434Z,12.60
2023-05-17T07:44:10.627Z,13.10
2023-05-17T07:46:37.640Z,12.70
2023-05-17T07:49:05.170Z,13.00
2023-05-17T07:51:32.316Z,13.10
2023-05-17T07:53:59.441Z,13.10
2023-05-17T07:56:26.528Z,13.10
2023-05-17T07:58:53.588Z,13.10
2023-05-17T08:01:20.627Z,13.40
2023-05-17T08:03:48.380Z,13.30
2023-05-17T08:06:17.080Z,13.80
2023-05-17T08:08:44.974Z,13.30
2023-05-17T08:11:13.620Z,12.70
2023-05-17T08:13:40.715Z,13.30
2023-05-17T08:16:14.008Z,13.40
2023-05-17T08:18:43.451Z,13.00
2023-05-17T08:21:11.457Z,12.70
2023-05-17T08:23:39.343Z,12.70
2023-05-17T08:26:06.880Z,12.60
2023-05-17T08:28:34.072Z,12.50
2023-05-17T08:31:01.258Z,12.40
2023-05-17T08:33:28.635Z,12.50
2023-05-17T08:35:58.052Z,12.50
2023-05-17T08:38:25.280Z,12.50
2023-05-17T08:40:56.843Z,12.60
2023-05-17T08:43:27.550Z,12.90
2023-05-17T08:45:57.916Z,13.40
2023-05-17T08:48:27.622Z,13.10
2023-05-17T08:50:55.984Z,12.90
2023-05-17T08:53:23.782Z,13.20
2023-05-17T08:55:53.832Z,13.20
2023-05-17T08:58:26.882Z,13.40
2023-05-17T09:00:56.241Z,13.40
2023-05-17T09:03:25.179Z,13.60
2023-05-17T09:05:53.806Z,13.80
2023-05-17T09:08:23.151Z,14.00
2023-05-17T09:10:50.769Z,14.00
2023-05-17T09:13:17.986Z,14.20
2023-05-17T09:15:48.305Z,14.50
2023-05-17T09:18:18.603Z,14.30
2023-05-17T09:20:51.863Z,14.10
2023-05-17T09:23:22.387Z,14.50
2023-05-17T09:25:49.919Z,13.90
2023-05-17T09:28:22.052Z,13.80
2023-05-17T09:30:50.169Z,13.50
2023-05-17T09:33:21.898Z,13.20
2023-05-17T09:35:49.079Z,13.70
2023-05-17T09:38:16.264Z,13.70
2023-05-17T09:40:48.490Z,14.20
2023-05-17T09:43:23.076Z,14.00
2023-05-17T09:45:57.816Z,14.30
2023-05-17T09:48:30.905Z,14.70
2023-05-17T09:50:58.062Z,14.80
2023-05-17T09:53:32.916Z,14.80
2023-05-17T09:56:03.103Z,14.30
2023-05-17T09:58:33.388Z,14.20
2023-05-17T10:01:08.589Z,14.40
2023-05-17T10:03:37.654Z,14.40
2023-05-17T10:06:13.282Z,14.80
2023-05-17T10:08:46.457Z,14.70
2023-05-17T10:11:14.044Z,14.40
2023-05-17T10:14:15.491Z,14.20
2023-05-17T10:16:43.386Z,14.10
2023-05-17T10:19:14.797Z,14.60
2023-05-17T10:24:11.456Z,14.90
2023-05-17T10:26:40.144Z,14.60
2023-05-17T10:29:08.029Z,14.60
2023-05-17T10:31:36.569Z,14.80
2023-05-17T10:34:08.853Z,14.70
2023-05-17T10:36:36.460Z,14.80
2023-05-17T10:39:09.663Z,14.80
2023-05-17T10:41:44.420Z,15.30
2023-05-17T10:44:16.200Z,15.20
2023-05-17T10:46:56.161Z,15.20
2023-05-17T10:49:37.135Z,14.80
2023-05-17T10:52:16.463Z,14.80
2023-05-17T10:54:45.625Z,15.00
2023-05-17T10:57:50.549Z,15.50
2023-05-17T11:00:28.053Z,15.40
2023-05-17T11:03:30.154Z,15.70
2023-05-17T11:06:24.457Z,15.40
2023-05-17T11:09:18.754Z,14.90
2023-05-17T11:12:07.650Z,14.90
2023-05-17T11:14:53.305Z,15.10
2023-05-17T11:17:24.506Z,15.30
2023-05-17T11:19:55.008Z,15.30
2023-05-17T11:22:26.815Z,15.60
2023-05-17T11:24:57.731Z,15.50
2023-05-17T11:27:28.790Z,15.70
2023-05-17T11:29:57.598Z,15.50
2023-05-17T11:32:32.810Z,15.30
2023-05-17T11:35:03.557Z,15.40
2023-05-17T11:37:31.483Z,15.50
2023-05-17T11:40:07.164Z,15.60
2023-05-17T11:42:38.373Z,15.30
2023-05-17T11:45:07.239Z,15.60
2023-05-17T11:47:38.730Z,15.70
2023-05-17T11:50:06.829Z,16.00
2023-05-17T11:52:34.923Z,15.60
2023-05-17T11:55:02.895Z,15.80
2023-05-17T11:57:31.788Z,15.80
2023-05-17T12:00:05.124Z,15.60
2023-05-17T12:02:33.175Z,15.50
2023-05-17T12:05:00.552Z,15.90
2023-05-17T12:07:28.633Z,15.60
2023-05-17T12:09:55.740Z,15.90
2023-05-17T12:12:23.684Z,15.90
2023-05-17T12:14:51.046Z,16.00
2023-05-17T12:17:38.659Z,16.00
2023-05-17T12:20:10.554Z,16.40
2023-05-17T12:22:57.193Z,16.50
2023-05-17T12:25:29.732Z,16.60
2023-05-17T12:28:22.267Z,17.00
2023-05-17T12:30:56.017Z,17.30
2023-05-17T12:33:23.523Z,16.20
2023-05-17T12:35:51.565Z,15.70
2023-05-17T12:38:19.895Z,16.00
2023-05-17T12:40:47.490Z,16.30
2023-05-17T12:43:14.579Z,16.20
2023-05-17T12:45:44.758Z,16.20
2023-05-17T12:48:11.885Z,16.30
2023-05-17T12:50:44.495Z,16.00
2023-05-17T12:53:11.807Z,16.40
2023-05-17T12:55:41.085Z,16.50
2023-05-17T12:58:09.186Z,16.30
2023-05-17T13:00:36.625Z,16.50
2023-05-17T13:03:10.904Z,16.70
2023-05-17T13:05:39.862Z,16.40
2023-05-17T13:08:20.958Z,16.10
2023-05-17T13:10:48.028Z,16.50
2023-05-17T13:13:22.778Z,15.80
2023-05-17T13:15:50.508Z,16.30
2023-05-17T13:18:18.318Z,16.20
2023-05-17T13:20:45.501Z,16.60
2023-05-17T13:23:14.840Z,16.80
2023-05-17T13:25:41.854Z,16.60
2023-05-17T13:28:08.962Z,16.40
2023-05-17T13:30:37.433Z,16.70
2023-05-17T13:33:05.246Z,16.60
2023-05-17T13:35:32.383Z,16.30
2023-05-17T13:37:59.396Z,16.50
2023-05-17T13:40:26.622Z,16.20
2023-05-17T13:42:53.847Z,16.20
2023-05-17T13:45:20.868Z,16.60
2023-05-17T13:47:48.112Z,16.70
2023-05-17T13:50:17.479Z,16.50
2023-05-17T13:52:44.593Z,16.40
2023-05-17T13:55:11.634Z,16.80
2023-05-17T13:57:38.701Z,17.00
2023-05-17T14:00:06.961Z,16.70
2023-05-17T14:02:34.090Z,16.60
2023-05-17T14:05:01.782Z,16.70
2023-05-17T14:07:29.259Z,16.40
2023-05-17T14:09:56.360Z,16.60
2023-05-17T14:12:23.549Z,16.90
2023-05-17T14:14:50.774Z,16.80
2023-05-17T14:17:18.947Z,16.70
2023-05-17T14:19:46.337Z,16.60
2023-05-17T14:22:13.964Z,16.70
2023-05-17T14:24:41.110Z,16.70
2023-05-17T14:27:08.380Z,16.60
2023-05-17T14:29:35.537Z,16.70
2023-05-17T14:32:03.264Z,16.50
2023-05-17T14:34:31.092Z,16.30
2023-05-17T14:36:58.286Z,16.40
2023-05-17T14:39:26.287Z,16.80
2023-05-17T14:41:53.323Z,17.00
2023-05-17T14:44:20.415Z,16.50
2023-05-17T14:46:47.529Z,16.70
2023-05-17T14:49:14.933Z,16.70
2023-05-17T14:51:42.761Z,17.00
2023-05-17T14:54:11.124Z,17.00
2023-05-17T14:56:39.353Z,16.50
2023-05-17T14:59:06.664Z,17.20
2023-05-17T15:01:33.996Z,17.30
2023-05-17T15:04:01.916Z,18.00
2023-05-17T15:06:30.292Z,18.50
2023-05-17T15:08:57.575Z,19.00
2023-05-17T15:11:25.962Z,18.50
2023-05-17T15:13:53.361Z,18.80
2023-05-17T15:16:21.054Z,18.60
2023-05-17T15:18:48.627Z,18.90
2023-05-17T15:21:20.001Z,18.30
2023-05-17T15:23:50.126Z,18.70
2023-05-17T15:26:17.619Z,18.80
2023-05-17T15:28:44.699Z,18.90
2023-05-17T15:31:11.770Z,19.60
2023-05-17T15:33:40.294Z,19.60
2023-05-17T15:36:07.919Z,19.90
2023-05-17T15:38:35.261Z,19.40
2023-05-17T15:41:07.582Z,19.40
2023-05-17T15:43:35.549Z,19.60
2023-05-17T15:46:02.826Z,20.30
2023-05-17T15:48:30.228Z,19.80
2023-05-17T15:50:58.310Z,19.80
2023-05-17T15:53:27.398Z,19.70
2023-05-17T15:55:55.090Z,19.80
2023-05-17T15:58:27.939Z,20.20
2023-05-17T16:00:56.066Z,20.40
2023-05-17T16:03:23.146Z,20.00
2023-05-17T16:05:50.321Z,19.80
2023-05-17T16:08:17.685Z,20.30
2023-05-17T16:10:45.220Z,20.20
2023-05-17T16:13:14.397Z,19.70
2023-05-17T16:15:41.639Z,20.40
2023-05-17T16:18:10.780Z,20.70
2023-05-17T16:20:38.070Z,21.10
2023-05-17T16:23:06.329Z,20.70
2023-05-17T16:25:34.363Z,21.30
2023-05-17T16:28:01.683Z,21.30
2023-05-17T16:30:29.406Z,21.20
2023-05-17T16:32:56.621Z,20.70
2023-05-17T16:35:23.928Z,21.70
2023-05-17T16:37:51.494Z,21.00
2023-05-17T16:40:18.622Z,21.20
2023-05-17T16:42:45.811Z,22.40
2023-05-17T16:45:12.822Z,21.80
2023-05-17T16:47:40.076Z,21.60
2023-05-17T16:50:07.966Z,21.20
2023-05-17T16:52:35.063Z,21.80
2023-05-17T16:55:04.232Z,21.90
2023-05-17T16:57:31.991Z,21.50
2023-05-17T17:00:01.468Z,21.70
2023-05-17T17:02:28.917Z,22.40
2023-05-17T17:04:58.627Z,21.80
2023-05-17T17:07:27.059Z,21.40
2023-05-17T17:09:54.267Z,21.40
2023-05-17T17:12:25.339Z,21.20
2023-05-17T17:14:54.311Z,21.10
2023-05-17T17:17:22.083Z,21.50
2023-05-17T17:19:49.268Z,21.20
2023-05-17T17:22:17.095Z,20.80
2023-05-17T17:24:45.593Z,20.80
2023-05-17T17:27:12.698Z,21.40
2023-05-17T17:29:39.787Z,21.70
2023-05-17T17:32:08.275Z,21.40
2023-05-17T17:34:35.659Z,21.90
2023-05-17T17:37:02.815Z,22.10
2023-05-17T17:39:29.939Z,21.80
2023-05-17T17:41:57.000Z,21.80
2023-05-17T17:44:24.682Z,21.60
2023-05-17T17:46:51.991Z,21.90
2023-05-17T17:49:19.172Z,21.40
2023-05-17T17:51:46.402Z,21.70
2023-05-17T17:54:13.608Z,21.90
2023-05-17T17:56:41.873Z,21.40
2023-05-17T17:59:09.106Z,20.60
2023-05-17T18:01:37.622Z,19.20
2023-05-17T18:04:06.384Z,19.10
2023-05-17T18:06:33.895Z,18.30
2023-05-17T18:09:00.946Z,18.30
2023-05-17T18:11:28.151Z,18.10
2023-05-17T18:13:55.743Z,18.00
2023-05-17T18:16:22.792Z,17.60
2023-05-17T18:18:49.859Z,16.90
2023-05-17T18:21:17.254Z,17.10
2023-05-17T18:23:44.325Z,16.90
2023-05-17T18:26:12.758Z,16.80
2023-05-17T18:28:42.844Z,16.60
2023-05-17T18:31:10.714Z,16.70
2023-05-17T18:33:37.841Z,16.50
2023-05-17T18:36:05.583Z,16.00
2023-05-17T18:38:32.665Z,16.00
2023-05-17T18:40:59.689Z,15.80
2023-05-17T18:43:29.202Z,15.70
2023-05-17T18:45:56.394Z,15.50
2023-05-17T18:48:24.670Z,15.50
2023-05-17T18:50:51.875Z,15.50
2023-05-17T18:53:19.084Z,15.50
2023-05-17T18:55:46.204Z,15.40
2023-05-17T18:58:13.449Z,15.20
2023-05-17T19:00:40.755Z,15.40
2023-05-17T19:03:07.996Z,15.10
2023-05-17T19:05:35.179Z,15.00
2023-05-17T19:08:03.783Z,14.90
2023-05-17T19:10:31.186Z,14.60
2023-05-17T19:12:58.450Z,14.70
2023-05-17T19:15:25.772Z,14.60
2023-05-17T19:17:53.193Z,14.40
2023-05-17T19:20:20.650Z,14.30
2023-05-17T19:22:47.843Z,14.30
2023-05-17T19:25:16.529Z,14.30
2023-05-17T19:27:44.483Z,14.20
2023-05-17T19:30:12.563Z,14.30
2023-05-17T19:32:40.125Z,14.20
2023-05-17T19:35:08.021Z,14.00
2023-05-17T19:37:35.122Z,13.90
2023-05-17T19:40:05.184Z,13.90
2023-05-17T19:42:32.373Z,13.90
2023-05-17T19:44:59.430Z,13.80
2023-05-17T19:47:26.617Z,13.90
2023-05-17T19:49:53.772Z,13.80
2023-05-17T19:52:21.185Z,13.70
2023-05-17T19:54:48.265Z,13.70
2023-05-17T19:57:15.275Z,13.60
2023-05-17T19:59:42.397Z,13.50
2023-05-17T20:02:09.930Z,13.30
2023-05-17T20:04:37.037Z,13.30
2023-05-17T20:07:04.152Z,13.10
2023-05-17T20:09:32.213Z,13.10
2023-05-17T20:11:59.529Z,13.20
2023-05-17T20:14:27.689Z,13.20
2023-05-17T20:16:55.108Z,13.10
2023-05-17T20:19:22.474Z,13.00
2023-05-17T20:21:49.676Z,12.90
2023-05-17T20:24:16.804Z,12.90
2023-05-17T20:26:46.800Z,12.90
2023-05-17T20:29:13.962Z,12.80
2023-05-17T20:31:41.162Z,12.70
2023-05-17T20:34:08.298Z,12.80
2023-05-17T20:36:35.553Z,12.70
2023-05-17T20:39:03.900Z,12.60
2023-05-17T20:41:31.034Z,12.50
2023-05-17T20:43:58.196Z,12.40
2023-05-17T20:46:25.647Z,12.40
2023-05-17T20:48:53.708Z,12.10
2023-05-17T20:51:22.397Z,12.10
2023-05-17T20:53:49.576Z,12.20
2023-05-17T20:56:19.292Z,12.00
2023-05-17T20:58:48.943Z,12.00
2023-05-17T21:01:16.152Z,12.00
2023-05-17T21:03:43.811Z,11.90
2023-05-17T21:06:11.030Z,11.90
2023-05-17T21:08:38.510Z,11.80
2023-05-17T21:11:05.677Z,11.90
2023-05-17T21:13:32.816Z,11.60
2023-05-17T21:15:59.972Z,11.70
2023-05-17T21:18:28.497Z,11.70
2023-05-17T21:20:55.677Z,11.50
2023-05-17T21:23:22.789Z,11.50
2023-05-17T21:25:49.876Z,11.50
2023-05-17T21:28:17.005Z,11.40
2023-05-17T21:30:44.318Z,11.40
2023-05-17T21:33:11.484Z,11.40
2023-05-17T21:35:38.642Z,11.30
2023-05-17T21:38:05.712Z,11.20
2023-05-17T21:40:33.214Z,11.20
2023-05-17T21:43:00.596Z,11.20
2023-05-17T21:45:28.882Z,11.20
2023-05-17T21:47:56.308Z,11.10
2023-05-17T21:50:27.209Z,11.10
2023-05-17T21:52:54.450Z,11.00
2023-05-17T21:55:21.944Z,11.00
2023-05-17T21:57:49.168Z,11.00
2023-05-17T22:00:16.630Z,10.90
2023-05-17T22:02:45.201Z,10.80
2023-05-17T22:05:13.176Z,10.80
2023-05-17T22:07:40.740Z,10.80
2023-05-17T22:10:10.007Z,10.70
2023-05-17T22:12:38.392Z,10.70
2023-05-17T22:15:06.552Z,10.60
2023-05-17T22:17:43.227Z,10.60
2023-05-17T22:20:19.666Z,10.50
2023-05-17T22:22:46.817Z,10.40
2023-05-17T22:25:15.620Z,10.40
2023-05-17T22:27:42.865Z,10.30
2023-05-17T22:30:10.547Z,10.40
2023-05-17T22:32:37.766Z,10.30
2023-05-17T22:35:05.702Z,10.30
2023-05-17T22:37:33.017Z,10.20
2023-05-17T22:40:00.131Z,10.20
2023-05-17T22:42:28.399Z,10.10
2023-05-17T22:44:55.845Z,10.10
2023-05-17T22:47:23.343Z,10.00
2023-05-17T22:49:52.550Z,10.10
2023-05-17T22:52:20.063Z,9.90
2023-05-17T22:54:47.317Z,9.90
2023-05-17T22:57:14.602Z,9.90
2023-05-17T22:59:43.916Z,9.90
2023-05-17T23:02:12.340Z,9.70
2023-05-17T23:04:40.492Z,9.80
2023-05-17T23:07:09.972Z,9.70
2023-05-17T23:09:40.876Z,9.70
2023-05-17T23:12:09.067Z,9.70
2023-05-17T23:14:36.857Z,9.60
2023-05-17T23:17:05.224Z,9.60
2023-05-17T23:19:35.877Z,9.50
2023-05-17T23:22:04.053Z,9.50
2023-05-17T23:24:31.525Z,9.50
2023-05-17T23:26:58.874Z,9.30
2023-05-17T23:29:27.639Z,9.30
2023-05-17T23:31:54.768Z,9.30
2023-05-17T23:34:22.182Z,9.40
2023-05-17T23:36:49.214Z,9.30
2023-05-17T23:39:16.407Z,9.30
2023-05-17T23:41:43.647Z,9.20
2023-05-17T23:44:11.294Z,9.20
2023-05-17T23:46:38.394Z,9.10
2023-05-17T23:49:05.910Z,9.20
2023-05-17T23:51:34.865Z,9.00
2023-05-17T23:54:02.344Z,9.00
2023-05-17T23:56:29.516Z,9.00
2023-05-17T23:58:56.532Z,9.00
